Aviation Digital Data Service (ADDS)

Output produced by METARs form (1200 UTC 26 March 2019)
found at http://www.aviationweather.gov/metar/data/
 
FYWE 261100Z 02010KT 9999 FEW045 BKN090 27/05 Q1025
TAF FYWE 261100Z 2612/2621 33006KT 9999 FEW045 
     BECMG 2612/2614 9999 SCT045TCU 
     PROB30 
     TEMPO 2615/2618 -TSRA FEW040CB
       
FYGF 261100Z 15010KT 9999 FEW050 31/11 Q1023
TAF FYGF 261100Z 2612/2621 15010KT 9999 FEW050 
     BECMG 2613/2615 07007KT SCT050 
     BECMG 2617/2619 FEW045CB
       
FYWH 261100Z 01013KT 9999 -RA SCT030 FEW040CB BKN090 22/12 Q1026 RERA BECMG -TSRA
TAF FYWH 261000Z 2612/2712 04014KT 9999 -RA FEW030 FEW040CB 
     PROB30 
     TEMPO 2613/2621 8000 TSRA SCT040CB 
     TEMPO 2621/2701 24008KT 9999 -TSRA FEW040CB 
     TEMPO 2702/2705 -RA SCT025 FEW030CB
       
FYKM 261100Z 13006KT 9999 FEW030 32/07 Q1016
TAF FYKM 261100Z 2612/2621 13006KT CAVOK 
     BECMG 2613/2615 9999 SCT040
       
FYKT 261100Z 01008KT CAVOK 33/06 Q1020
TAF FYKT 261000Z 2612/2712 36009KT CAVOK
       
FYLZ 261100Z AUTO 21013KT //// // ////// 26/13 Q1012
TAF FYLZ 261100Z 2612/2621 21013KT CAVOK
       
FYML 261100Z AUTO 11003KT //// // ////// 35/00 Q1021
FYOA 261100Z AUTO 16006KT //// // ////// 33/11 Q1017
TAF FYOA 261100Z 2612/2621 16006KT CAVOK 
     BECMG 2612/2614 10007KT SCT050 
     TEMPO 2615/2618 -TSRA FEW040CB SCT045TCU
       
TAF FYRU 261100Z 2612/2621 09010KT 9999 FEW045 
     BECMG 2613/2615 SCT045
       
FYWB 261100Z 33006KT CAVOK 19/14 Q1014
TAF FYWB 261000Z 2612/2712 36009KT CAVOK 
     BECMG 2614/2616 27009KT BKN020 
     BECMG 2619/2621 9999 OVC010 
     PROB30 
     TEMPO 2622/2704 04004KT 0600 FG OVC007